Time;durP1;ratioP1;P1;durP2;ratioP2;P2;SDS_P1;SDS_P2;PMS_P1;PMS_P2;Temp;Humidity;BMP_temperature;BMP_pressure;BME280_temperature;BME280_humidity;BME280_pressure;Samples;Min_cycle;Max_cycle;Signal;HPM_P1;HPM_P2
2023/09/08 00:00:43;;;;;;;16.98;11.88;;;20.00;99.90;;;;;;4739412;30;20438;-74
2023/09/08 00:03:08;;;;;;;17.45;12.38;;;20.00;99.90;;;;;;4739443;30;20100;-74
2023/09/08 00:05:34;;;;;;;15.95;13.13;;;20.00;99.90;;;;;;4739542;30;20139;-74
2023/09/08 00:08:00;;;;;;;18.98;13.00;;;20.00;99.90;;;;;;4739683;30;20135;-74
2023/09/08 00:10:26;;;;;;;16.67;12.90;;;19.90;99.90;;;;;;4755069;30;20060;-73
2023/09/08 00:12:52;;;;;;;17.88;12.98;;;19.90;99.90;;;;;;4739052;30;20125;-73
2023/09/08 00:15:17;;;;;;;20.15;12.95;;;19.80;99.90;;;;;;4739130;30;20489;-73
2023/09/08 00:17:43;;;;;;;16.02;13.02;;;19.80;99.90;;;;;;4755225;30;20056;-73
2023/09/08 00:20:09;;;;;;;16.40;12.90;;;19.80;99.90;;;;;;4739469;30;20040;-73
2023/09/08 00:22:35;;;;;;;16.55;12.68;;;19.80;99.90;;;;;;4739067;30;20063;-74
2023/09/08 00:25:01;;;;;;;16.63;12.23;;;19.70;99.90;;;;;;4755080;30;20048;-73
2023/09/08 00:27:27;;;;;;;19.55;13.32;;;19.80;99.90;;;;;;4739288;30;20066;-73
2023/09/08 00:29:52;;;;;;;19.85;13.15;;;19.70;99.90;;;;;;4738913;30;20044;-73
2023/09/08 00:32:18;;;;;;;17.70;12.77;;;19.70;99.90;;;;;;4754836;30;20087;-73
2023/09/08 00:34:44;;;;;;;17.73;13.38;;;19.60;99.90;;;;;;4754917;30;20488;-73
2023/09/08 00:37:10;;;;;;;17.35;12.93;;;19.60;99.90;;;;;;4754823;30;20062;-73
2023/09/08 00:39:38;;;;;;;15.20;12.75;;;19.50;99.90;;;;;;4739015;30;20045;-74
2023/09/08 00:42:04;;;;;;;18.67;13.98;;;19.50;99.90;;;;;;4738903;30;20048;-74
2023/09/08 00:44:30;;;;;;;21.27;13.82;;;19.50;99.90;;;;;;4738590;30;20063;-73
2023/09/08 00:46:56;;;;;;;19.77;12.52;;;19.40;99.90;;;;;;4738355;30;20047;-73
2023/09/08 00:49:22;;;;;;;17.23;13.27;;;19.40;99.90;;;;;;4738892;30;20489;-74
2023/09/08 00:51:48;;;;;;;19.80;14.23;;;19.40;99.90;;;;;;4738607;30;20135;-73
2023/09/08 00:54:15;;;;;;;17.40;13.95;;;19.40;99.90;;;;;;4738618;30;20113;-74
2023/09/08 00:56:41;;;;;;;17.63;14.10;;;19.30;99.90;;;;;;4738468;30;20117;-74
2023/09/08 00:59:08;;;;;;;19.10;13.93;;;19.40;99.90;;;;;;4738289;30;20058;-74
2023/09/08 01:01:34;;;;;;;17.95;13.10;;;19.30;99.90;;;;;;4738701;30;20095;-74
2023/09/08 01:04:01;;;;;;;20.10;13.98;;;19.30;99.90;;;;;;4738502;30;20048;-73
2023/09/08 01:06:27;;;;;;;19.63;13.65;;;19.30;99.90;;;;;;4738387;30;20056;-74
2023/09/08 01:08:54;;;;;;;17.50;13.95;;;19.20;99.90;;;;;;4738239;30;20048;-74
2023/09/08 01:11:23;;;;;;;19.25;13.73;;;19.20;99.90;;;;;;4738004;30;20345;-74
2023/09/08 01:13:48;;;;;;;18.67;13.38;;;19.10;99.90;;;;;;4754121;30;20492;-74
2023/09/08 01:16:14;;;;;;;19.98;14.23;;;19.10;99.90;;;;;;4754179;30;20052;-74
2023/09/08 01:18:40;;;;;;;17.50;13.45;;;19.10;99.90;;;;;;4754092;30;20052;-74
2023/09/08 01:21:11;;;;;;;18.45;14.70;;;19.00;99.90;;;;;;4738179;30;20109;-74
2023/09/08 01:23:50;;;;;;;18.77;15.05;;;19.00;99.90;;;;;;4738260;30;20051;-74
2023/09/08 01:26:23;;;;;;;18.20;13.88;;;18.90;99.90;;;;;;4738301;30;20056;-74
2023/09/08 01:28:50;;;;;;;20.20;14.25;;;18.90;99.90;;;;;;4738508;30;20129;-73
2023/09/08 01:31:17;;;;;;;19.42;13.25;;;18.80;99.90;;;;;;4753926;30;20056;-73
2023/09/08 01:33:43;;;;;;;19.23;14.52;;;18.90;99.90;;;;;;4753826;30;20051;-74
2023/09/08 01:36:09;;;;;;;17.88;14.18;;;18.80;99.90;;;;;;4753694;30;20110;-73
2023/09/08 01:38:35;;;;;;;22.58;15.07;;;18.70;99.90;;;;;;4737997;30;20056;-73
2023/09/08 01:41:01;;;;;;;18.55;14.68;;;18.60;99.90;;;;;;4737761;30;20063;-74
2023/09/08 01:43:27;;;;;;;20.33;15.20;;;18.70;99.90;;;;;;4738002;30;20094;-73
2023/09/08 01:45:53;;;;;;;18.98;14.45;;;18.60;99.90;;;;;;4753636;30;20512;-74
2023/09/08 01:48:19;;;;;;;18.60;14.90;;;18.60;99.90;;;;;;4737561;30;20482;-73
2023/09/08 01:50:45;;;;;;;16.73;14.32;;;18.60;99.90;;;;;;4753500;30;20498;-73
2023/09/08 01:53:11;;;;;;;24.95;15.38;;;18.60;99.90;;;;;;4753576;30;20099;-73
2023/09/08 01:55:37;;;;;;;19.23;14.15;;;18.60;99.90;;;;;;4753549;30;20078;-74
2023/09/08 01:58:02;;;;;;;20.73;14.45;;;18.60;99.90;;;;;;4736897;30;20464;-74
2023/09/08 02:00:28;;;;;;;19.13;15.25;;;18.60;99.90;;;;;;4737771;30;20084;-73
2023/09/08 02:02:54;;;;;;;20.60;14.98;;;18.50;99.90;;;;;;4753214;30;20547;-73
2023/09/08 02:05:20;;;;;;;19.08;14.13;;;18.50;99.90;;;;;;4737711;30;20056;-73
2023/09/08 02:07:45;;;;;;;20.88;13.75;;;18.50;99.90;;;;;;4737374;30;20052;-74
2023/09/08 02:10:12;;;;;;;20.15;15.25;;;18.40;99.90;;;;;;4737149;30;20064;-74
2023/09/08 02:12:38;;;;;;;20.23;15.75;;;18.40;99.90;;;;;;4737301;30;20446;-74
2023/09/08 02:15:04;;;;;;;18.90;14.48;;;18.40;99.90;;;;;;4753234;30;20474;-73
2023/09/08 02:17:30;;;;;;;24.10;15.88;;;18.40;99.90;;;;;;4737613;30;20405;-73
2023/09/08 02:19:56;;;;;;;21.77;15.45;;;18.40;99.90;;;;;;4737462;30;20048;-73
2023/09/08 02:22:21;;;;;;;19.20;13.85;;;18.40;99.90;;;;;;4753185;30;20505;-73
2023/09/08 02:24:47;;;;;;;19.80;14.63;;;18.40;99.90;;;;;;4737197;30;20056;-73
2023/09/08 02:27:13;;;;;;;19.90;14.93;;;18.30;99.90;;;;;;4737296;30;20139;-73
2023/09/08 02:29:38;;;;;;;18.80;14.75;;;18.40;99.90;;;;;;4737514;30;20096;-73
2023/09/08 02:32:04;;;;;;;21.45;14.88;;;18.40;99.90;;;;;;4736926;30;20135;-73
2023/09/08 02:34:30;;;;;;;20.38;14.98;;;18.30;99.90;;;;;;4737270;30;20052;-73
2023/09/08 02:36:56;;;;;;;19.33;14.13;;;18.30;99.90;;;;;;4737049;30;20059;-73
2023/09/08 02:39:23;;;;;;;19.35;14.23;;;18.30;99.90;;;;;;4737013;30;20135;-73
2023/09/08 02:41:48;;;;;;;19.17;14.10;;;18.20;99.90;;;;;;4737275;30;20184;-73
2023/09/08 02:44:14;;;;;;;22.20;15.07;;;18.30;99.90;;;;;;4752910;30;20398;-74
2023/09/08 02:46:40;;;;;;;20.02;15.65;;;18.20;99.90;;;;;;4736909;30;20102;-74
2023/09/08 02:49:06;;;;;;;21.13;14.85;;;18.20;99.90;;;;;;4737192;30;20190;-73
2023/09/08 02:51:31;;;;;;;18.70;14.68;;;18.20;99.90;;;;;;4737042;30;20048;-73
2023/09/08 02:53:57;;;;;;;21.05;15.38;;;18.10;99.90;;;;;;4737146;30;20056;-73
2023/09/08 02:56:22;;;;;;;19.20;15.32;;;18.20;99.90;;;;;;4752813;30;20052;-73
2023/09/08 02:58:48;;;;;;;18.75;15.45;;;18.20;99.90;;;;;;4752814;30;20102;-74
2023/09/08 03:01:20;;;;;;;21.13;15.50;;;18.20;99.90;;;;;;4753221;30;20056;-73
2023/09/08 03:03:46;;;;;;;22.60;16.63;;;18.10;99.90;;;;;;4737060;30;20086;-73
2023/09/08 03:06:14;;;;;;;25.55;16.50;;;18.00;99.90;;;;;;4752633;30;20505;-73
2023/09/08 03:08:40;;;;;;;20.67;15.70;;;18.00;99.90;;;;;;4738339;30;20456;-73
2023/09/08 03:11:08;;;;;;;19.17;15.73;;;18.00;99.90;;;;;;4740046;30;20052;-73
2023/09/08 03:13:34;;;;;;;23.08;16.23;;;18.00;99.90;;;;;;4756157;30;20462;-73
2023/09/08 03:16:06;;;;;;;21.65;15.35;;;17.90;99.90;;;;;;4740170;30;20058;-74
2023/09/08 03:18:32;;;;;;;20.52;15.68;;;17.90;99.90;;;;;;4756197;30;20099;-74
2023/09/08 03:20:59;;;;;;;19.52;15.40;;;18.00;99.90;;;;;;4740354;30;20048;-73
2023/09/08 03:23:25;;;;;;;19.65;16.58;;;17.90;99.90;;;;;;4740104;30;20056;-74
2023/09/08 03:25:51;;;;;;;23.02;16.00;;;17.90;99.90;;;;;;4740471;30;20052;-74
2023/09/08 03:28:16;;;;;;;22.98;16.95;;;18.00;99.90;;;;;;4739997;30;20052;-74
2023/09/08 03:30:42;;;;;;;19.27;15.32;;;17.90;99.90;;;;;;4755924;30;20040;-74
2023/09/08 03:33:08;;;;;;;21.95;16.15;;;17.90;99.90;;;;;;4755770;30;20052;-73
2023/09/08 03:35:33;;;;;;;23.73;17.33;;;17.90;99.90;;;;;;4739748;30;20605;-74
2023/09/08 03:37:59;;;;;;;21.58;16.67;;;17.90;99.90;;;;;;4740222;30;20114;-74
2023/09/08 03:40:24;;;;;;;23.83;16.60;;;17.90;99.90;;;;;;4755791;30;20481;-74
2023/09/08 03:42:53;;;;;;;22.17;17.23;;;17.80;99.90;;;;;;4740156;30;20088;-73
2023/09/08 03:45:20;;;;;;;22.02;16.27;;;17.70;99.90;;;;;;4755832;30;20059;-74
2023/09/08 03:47:46;;;;;;;23.50;17.33;;;17.80;99.90;;;;;;4739619;30;20091;-74
2023/09/08 03:50:11;;;;;;;20.85;16.38;;;17.80;99.90;;;;;;4739702;30;20096;-74
2023/09/08 03:52:37;;;;;;;22.08;16.75;;;17.80;99.90;;;;;;4740065;30;20060;-73
2023/09/08 03:55:03;;;;;;;21.77;16.52;;;17.70;99.90;;;;;;4739847;30;20082;-73
2023/09/08 03:57:28;;;;;;;22.10;16.67;;;17.70;99.90;;;;;;4739646;30;20098;-73
2023/09/08 03:59:54;;;;;;;25.73;17.70;;;17.70;99.90;;;;;;4739479;30;20044;-73
2023/09/08 04:02:19;;;;;;;23.33;17.67;;;17.60;99.90;;;;;;4755473;30;20056;-73
2023/09/08 04:04:45;;;;;;;23.63;17.08;;;17.60;99.90;;;;;;4739442;30;20059;-73
2023/09/08 04:07:11;;;;;;;24.55;17.10;;;17.60;99.90;;;;;;4739773;30;20118;-73
2023/09/08 04:09:36;;;;;;;21.70;17.60;;;17.50;99.90;;;;;;4739731;30;20569;-74
2023/09/08 04:12:03;;;;;;;21.58;18.02;;;17.50;99.90;;;;;;4755046;30;20060;-74
2023/09/08 04:14:30;;;;;;;22.58;16.52;;;17.50;99.90;;;;;;4755108;30;20490;-74
2023/09/08 04:16:55;;;;;;;21.15;17.13;;;17.50;99.90;;;;;;4739243;30;20044;-74
2023/09/08 04:19:21;;;;;;;23.48;16.67;;;17.40;99.90;;;;;;4739001;30;20090;-73
2023/09/08 04:21:47;;;;;;;24.13;18.20;;;17.50;99.90;;;;;;4738635;30;20048;-74
2023/09/08 04:24:12;;;;;;;26.10;17.80;;;17.40;99.90;;;;;;4739425;30;20055;-74
2023/09/08 04:26:38;;;;;;;23.65;17.92;;;17.40;99.90;;;;;;4738958;30;20474;-73
2023/09/08 04:29:03;;;;;;;22.40;17.70;;;17.40;99.90;;;;;;4738912;30;20102;-73
2023/09/08 04:31:29;;;;;;;26.35;17.30;;;17.30;99.90;;;;;;4754894;30;20082;-73
2023/09/08 04:33:55;;;;;;;23.55;17.17;;;17.30;99.90;;;;;;4738978;30;20135;-73
2023/09/08 04:36:20;;;;;;;24.20;18.13;;;17.40;99.90;;;;;;4739037;30;20041;-73
2023/09/08 04:38:46;;;;;;;25.50;17.55;;;17.30;99.90;;;;;;4738907;30;20052;-73
2023/09/08 04:41:12;;;;;;;21.17;16.98;;;17.30;99.90;;;;;;4739192;30;20051;-73
2023/09/08 04:43:37;;;;;;;22.75;18.02;;;17.30;99.90;;;;;;4754945;30;20158;-73
2023/09/08 04:46:03;;;;;;;23.73;18.63;;;17.30;99.90;;;;;;4738871;30;20478;-74
2023/09/08 04:48:29;;;;;;;24.60;18.10;;;17.30;99.90;;;;;;4754516;30;20060;-74
2023/09/08 04:50:56;;;;;;;22.48;17.58;;;17.20;99.90;;;;;;4737627;30;20083;-73
2023/09/08 04:53:21;;;;;;;27.42;18.85;;;17.20;99.90;;;;;;4738223;30;20055;-73
2023/09/08 04:55:47;;;;;;;22.60;18.05;;;17.20;99.90;;;;;;4738572;30;20404;-73
2023/09/08 04:58:13;;;;;;;24.40;18.25;;;17.20;99.90;;;;;;4738394;30;20121;-73
2023/09/08 05:00:40;;;;;;;23.52;19.10;;;17.20;99.90;;;;;;4738339;30;20044;-73
2023/09/08 05:03:06;;;;;;;23.92;18.92;;;17.10;99.90;;;;;;4754327;30;20122;-73
2023/09/08 05:05:32;;;;;;;24.88;18.92;;;17.20;99.90;;;;;;4754210;30;20083;-73
2023/09/08 05:07:57;;;;;;;23.10;18.48;;;17.20;99.90;;;;;;4738157;30;20099;-73
2023/09/08 05:10:25;;;;;;;25.63;17.85;;;17.10;99.90;;;;;;4737953;30;20060;-74
2023/09/08 05:12:51;;;;;;;28.90;18.88;;;17.10;99.90;;;;;;4738027;30;20436;-73
2023/09/08 05:15:20;;;;;;;22.58;19.52;;;17.10;99.90;;;;;;4738008;30;20409;-73
2023/09/08 05:17:46;;;;;;;26.40;19.17;;;17.10;99.90;;;;;;4737989;30;20060;-73
2023/09/08 05:20:14;;;;;;;23.08;18.45;;;17.10;99.90;;;;;;4738158;30;20092;-74
2023/09/08 05:22:40;;;;;;;24.58;18.70;;;17.10;99.90;;;;;;4737847;30;20098;-73
2023/09/08 05:25:09;;;;;;;22.80;17.42;;;17.10;99.90;;;;;;4754020;30;20048;-73
2023/09/08 05:27:34;;;;;;;24.70;18.52;;;17.20;99.90;;;;;;4737831;30;20068;-73
2023/09/08 05:30:00;;;;;;;23.42;17.92;;;17.20;99.90;;;;;;4738050;30;20082;-73
2023/09/08 05:32:25;;;;;;;24.85;18.08;;;17.10;99.90;;;;;;4737630;30;20067;-73
2023/09/08 05:34:51;;;;;;;26.75;19.08;;;17.10;99.90;;;;;;4753863;30;20135;-74
2023/09/08 05:37:16;;;;;;;25.90;18.58;;;17.20;99.90;;;;;;4753495;30;20056;-74
2023/09/08 05:39:42;;;;;;;27.20;18.83;;;17.20;99.90;;;;;;4737976;30;20555;-73
2023/09/08 05:42:08;;;;;;;26.17;19.02;;;17.20;99.90;;;;;;4753850;30;20056;-73
2023/09/08 05:44:33;;;;;;;25.02;18.17;;;17.20;99.90;;;;;;4737789;30;20080;-73
2023/09/08 05:46:59;;;;;;;25.15;18.40;;;17.30;99.90;;;;;;4737820;30;20048;-73
2023/09/08 05:49:25;;;;;;;23.40;18.85;;;17.40;99.90;;;;;;4737489;30;20044;-73
2023/09/08 05:51:50;;;;;;;23.65;18.25;;;17.40;99.90;;;;;;4737434;30;20126;-73
2023/09/08 05:54:16;;;;;;;24.83;18.85;;;17.40;99.90;;;;;;4737854;30;20139;-73
2023/09/08 05:56:42;;;;;;;27.05;18.70;;;17.40;99.90;;;;;;4753508;30;20052;-74
2023/09/08 05:59:07;;;;;;;25.88;18.20;;;17.40;99.90;;;;;;4737633;30;20063;-74
2023/09/08 06:01:33;;;;;;;23.70;18.00;;;17.50;99.90;;;;;;4737824;30;20048;-73
2023/09/08 06:03:58;;;;;;;21.95;17.45;;;17.70;99.90;;;;;;4753382;30;20489;-73
2023/09/08 06:06:25;;;;;;;24.40;17.70;;;17.80;99.90;;;;;;4737642;30;20051;-73
2023/09/08 06:08:51;;;;;;;25.45;18.30;;;17.90;99.90;;;;;;4753443;30;20044;-73
2023/09/08 06:11:17;;;;;;;24.13;17.10;;;17.90;99.90;;;;;;4752929;30;20079;-72
2023/09/08 06:13:43;;;;;;;23.80;18.23;;;18.00;99.90;;;;;;4732945;30;20110;-75
2023/09/08 06:16:08;;;;;;;24.80;17.40;;;18.10;99.90;;;;;;4727173;30;20057;-73
2023/09/08 06:18:39;;;;;;;22.30;16.52;;;18.20;99.90;;;;;;4735480;30;20044;-74
2023/09/08 06:21:06;;;;;;;21.05;17.70;;;18.30;99.90;;;;;;4735099;30;20139;-73
2023/09/08 06:23:33;;;;;;;21.98;17.40;;;18.40;99.90;;;;;;4719329;30;20492;-73
2023/09/08 06:25:59;;;;;;;22.52;18.23;;;18.50;99.90;;;;;;4735376;30;20056;-73
2023/09/08 06:28:26;;;;;;;22.40;17.75;;;18.60;99.90;;;;;;4719327;30;20056;-73
2023/09/08 06:30:52;;;;;;;27.67;17.83;;;18.70;99.90;;;;;;4719484;30;20052;-73
2023/09/08 06:33:17;;;;;;;25.48;17.38;;;18.70;99.90;;;;;;4735068;30;20088;-73
2023/09/08 06:35:44;;;;;;;24.88;18.50;;;18.80;99.90;;;;;;4734899;30;20107;-73
2023/09/08 06:38:12;;;;;;;21.52;17.00;;;18.90;99.90;;;;;;4719484;30;20064;-73
2023/09/08 06:40:43;;;;;;;23.05;17.70;;;18.90;99.90;;;;;;4719203;30;20056;-73
2023/09/08 06:43:08;;;;;;;23.52;17.33;;;19.00;99.90;;;;;;4734831;30;20049;-73
2023/09/08 06:45:37;;;;;;;21.90;17.65;;;19.20;99.90;;;;;;4735106;30;20052;-72
2023/09/08 06:48:21;;;;;;;22.50;17.58;;;19.30;99.90;;;;;;4719445;30;20460;-71
2023/09/08 06:51:02;;;;;;;24.10;16.85;;;19.30;99.90;;;;;;4719196;30;20056;-72
2023/09/08 06:53:28;;;;;;;21.85;16.98;;;19.40;99.90;;;;;;4719383;30;20052;-72
2023/09/08 06:55:54;;;;;;;24.75;17.17;;;19.50;99.90;;;;;;4719268;30;20118;-72
2023/09/08 06:58:20;;;;;;;22.45;15.68;;;19.50;99.90;;;;;;4719096;30;20140;-73
2023/09/08 07:00:45;;;;;;;21.50;17.20;;;19.60;99.90;;;;;;4719304;30;20056;-72
2023/09/08 07:03:11;;;;;;;20.38;15.73;;;19.70;99.90;;;;;;4735038;30;20490;-72
2023/09/08 07:05:39;;;;;;;23.70;16.38;;;19.80;99.90;;;;;;4719035;30;20056;-73
2023/09/08 07:08:06;;;;;;;18.75;16.02;;;19.90;99.90;;;;;;4734754;30;20111;-73
2023/09/08 07:10:33;;;;;;;20.67;15.45;;;19.90;99.90;;;;;;4719022;30;20103;-73
2023/09/08 07:12:59;;;;;;;21.02;15.68;;;20.00;99.90;;;;;;4718866;30;20095;-74
2023/09/08 07:15:24;;;;;;;20.25;15.25;;;20.10;99.90;;;;;;4719150;30;20056;-73
2023/09/08 07:17:50;;;;;;;21.02;15.35;;;20.20;99.90;;;;;;4718895;30;20067;-73
2023/09/08 07:20:17;;;;;;;20.83;15.88;;;20.30;99.90;;;;;;4719003;30;20084;-73
2023/09/08 07:22:43;;;;;;;18.83;14.80;;;20.30;99.90;;;;;;4734604;30;20068;-73
2023/09/08 07:25:09;;;;;;;20.40;14.77;;;20.40;99.90;;;;;;4718820;30;20049;-73
2023/09/08 07:27:35;;;;;;;19.20;15.38;;;20.50;99.90;;;;;;4734500;30;20056;-73
2023/09/08 07:30:01;;;;;;;24.13;15.07;;;20.50;99.90;;;;;;4718784;30;20127;-74
2023/09/08 07:32:26;;;;;;;22.65;15.50;;;20.60;99.90;;;;;;4718690;30;20052;-73
2023/09/08 07:34:54;;;;;;;17.15;15.02;;;20.70;99.90;;;;;;4718800;30;20092;-73
2023/09/08 07:37:24;;;;;;;19.23;14.82;;;20.80;99.90;;;;;;4718750;30;20057;-73
2023/09/08 07:39:50;;;;;;;22.65;15.77;;;20.90;99.90;;;;;;4734605;30;20048;-73
2023/09/08 07:42:16;;;;;;;19.30;14.00;;;20.90;99.90;;;;;;4734355;30;20086;-74
2023/09/08 07:44:42;;;;;;;19.85;13.60;;;21.00;99.90;;;;;;4734458;30;20144;-73
2023/09/08 07:47:07;;;;;;;17.17;13.75;;;21.10;99.90;;;;;;4718720;30;20490;-73
2023/09/08 07:49:34;;;;;;;18.80;13.35;;;21.20;99.90;;;;;;4734408;30;20060;-73
2023/09/08 07:52:00;;;;;;;17.95;14.23;;;21.20;99.90;;;;;;4718666;30;20060;-73
2023/09/08 07:54:25;;;;;;;20.42;13.13;;;21.30;99.90;;;;;;4718612;30;20048;-74
2023/09/08 07:56:51;;;;;;;17.70;13.65;;;21.40;99.90;;;;;;4721473;30;20052;-74
2023/09/08 07:59:25;;;;;;;17.75;12.63;;;21.50;99.90;;;;;;4721880;30;20060;-74
2023/09/08 08:01:51;;;;;;;22.70;13.73;;;21.60;99.90;;;;;;4737537;30;20054;-74
2023/09/08 08:04:17;;;;;;;16.98;13.07;;;21.60;99.90;;;;;;4721892;30;20311;-74
2023/09/08 08:06:42;;;;;;;16.77;13.50;;;21.70;99.90;;;;;;4721780;30;20076;-74
2023/09/08 08:09:08;;;;;;;19.60;13.52;;;21.80;99.90;;;;;;4721839;30;20473;-73
2023/09/08 08:11:34;;;;;;;20.42;14.07;;;21.90;99.90;;;;;;4736977;30;20088;-74
2023/09/08 08:14:00;;;;;;;17.33;12.77;;;22.00;99.90;;;;;;4737346;30;20053;-74
2023/09/08 08:16:26;;;;;;;18.77;12.70;;;22.00;99.90;;;;;;4721474;30;20545;-73
2023/09/08 08:18:52;;;;;;;16.40;12.32;;;22.10;99.90;;;;;;4721686;30;20127;-73
2023/09/08 08:21:18;;;;;;;18.15;12.75;;;22.10;99.90;;;;;;4721353;30;20059;-74
2023/09/08 08:23:44;;;;;;;15.35;12.52;;;22.20;99.90;;;;;;4721425;30;20052;-74
2023/09/08 08:26:12;;;;;;;16.30;12.82;;;22.20;99.90;;;;;;4737235;30;20591;-74
2023/09/08 08:28:38;;;;;;;20.58;13.23;;;22.40;99.90;;;;;;4737128;30;20053;-74
2023/09/08 08:31:04;;;;;;;16.27;12.63;;;22.40;99.90;;;;;;4721198;30;20059;-74
2023/09/08 08:33:30;;;;;;;19.13;13.85;;;22.50;99.90;;;;;;4721434;30;20096;-72
2023/09/08 08:35:56;;;;;;;17.38;13.25;;;22.60;99.90;;;;;;4721400;30;20049;-72
2023/09/08 08:38:22;;;;;;;16.50;11.98;;;22.70;99.90;;;;;;4721310;30;20052;-72
2023/09/08 08:40:47;;;;;;;13.50;11.38;;;22.70;99.90;;;;;;4721315;30;20077;-72
2023/09/08 08:43:13;;;;;;;15.05;12.48;;;22.80;99.90;;;;;;4736951;30;20048;-72
2023/09/08 08:45:41;;;;;;;15.73;11.68;;;22.90;99.90;;;;;;4720967;30;20064;-72
2023/09/08 08:48:08;;;;;;;15.73;11.73;;;22.90;99.90;;;;;;4720993;30;20048;-72
2023/09/08 08:50:35;;;;;;;17.10;12.30;;;23.10;99.90;;;;;;4720835;30;20065;-73
2023/09/08 08:53:02;;;;;;;12.93;10.63;;;23.20;99.90;;;;;;4720706;30;20391;-72
2023/09/08 08:55:31;;;;;;;16.52;12.23;;;23.30;99.90;;;;;;4720771;30;20417;-72
2023/09/08 08:58:05;;;;;;;16.52;12.43;;;23.40;99.90;;;;;;4736717;30;20063;-72
2023/09/08 09:00:36;;;;;;;17.60;11.65;;;23.40;99.90;;;;;;4720979;30;20056;-72
2023/09/08 09:03:03;;;;;;;15.25;10.60;;;23.50;99.90;;;;;;4736454;30;20056;-72
2023/09/08 09:05:29;;;;;;;14.98;11.65;;;23.60;99.90;;;;;;4720575;30;20501;-73
2023/09/08 09:07:58;;;;;;;15.63;11.75;;;23.60;99.90;;;;;;4720247;30;20118;-73
2023/09/08 09:10:25;;;;;;;14.60;11.32;;;23.70;99.90;;;;;;4736262;30;20053;-71
2023/09/08 09:12:51;;;;;;;15.65;10.90;;;23.80;99.90;;;;;;4720491;30;20060;-71
2023/09/08 09:15:28;;;;;;;16.00;11.38;;;23.80;99.90;;;;;;4736441;30;20059;-71
2023/09/08 09:18:04;;;;;;;19.25;11.73;;;23.90;99.90;;;;;;4720497;30;20056;-72
2023/09/08 09:20:30;;;;;;;14.23;11.50;;;24.00;99.90;;;;;;4720305;30;20052;-73
2023/09/08 09:22:56;;;;;;;16.30;11.10;;;24.10;99.90;;;;;;4720651;30;20048;-72
2023/09/08 09:25:23;;;;;;;21.05;11.18;;;24.20;99.90;;;;;;4720303;30;20542;-72
2023/09/08 09:27:53;;;;;;;14.38;10.25;;;24.20;99.90;;;;;;4720795;30;20055;-73
2023/09/08 09:30:19;;;;;;;14.90;10.48;;;24.30;99.90;;;;;;4735865;30;20499;-75
2023/09/08 09:32:44;;;;;;;15.43;10.00;;;24.40;99.90;;;;;;4720096;30;20504;-72
2023/09/08 09:35:10;;;;;;;14.85;10.80;;;24.50;99.90;;;;;;4720369;30;20142;-72
2023/09/08 09:37:36;;;;;;;21.60;10.57;;;24.60;99.90;;;;;;4735943;30;20379;-74
2023/09/08 09:40:05;;;;;;;17.00;11.50;;;24.80;99.90;;;;;;4729394;30;20059;-74
2023/09/08 09:42:31;;;;;;;15.63;11.38;;;24.90;99.90;;;;;;4733182;30;20063;-73
2023/09/08 09:44:57;;;;;;;17.85;11.73;;;25.10;99.90;;;;;;4761160;30;20075;-74
2023/09/08 09:47:23;;;;;;;18.67;11.07;;;25.10;99.90;;;;;;4751317;30;20051;-73
2023/09/08 09:49:51;;;;;;;12.85;11.30;;;25.10;99.90;;;;;;4750886;30;20075;-74
2023/09/08 09:52:31;;;;;;;13.55;11.95;;;25.20;99.90;;;;;;4766640;30;20578;-74
2023/09/08 09:54:58;;;;;;;13.75;11.98;;;25.30;99.90;;;;;;4766329;30;20044;-73
2023/09/08 09:57:24;;;;;;;13.57;9.75;;;25.30;99.90;;;;;;4751485;30;20141;-74
2023/09/08 09:59:53;;;;;;;13.68;10.55;;;25.40;99.90;;;;;;4750848;30;20067;-75
2023/09/08 10:02:21;;;;;;;21.33;11.75;;;25.40;99.90;;;;;;4750670;30;20055;-76
2023/09/08 10:04:49;;;;;;;14.45;9.57;;;25.50;99.90;;;;;;4750331;30;20135;-75
2023/09/08 10:07:16;;;;;;;18.25;10.93;;;25.60;99.90;;;;;;4750941;30;20059;-74
2023/09/08 10:09:42;;;;;;;17.13;10.88;;;25.70;99.90;;;;;;4750932;30;20105;-75
2023/09/08 10:12:11;;;;;;;15.60;11.05;;;25.80;99.90;;;;;;4750335;30;20059;-74
2023/09/08 10:14:40;;;;;;;17.30;12.35;;;25.90;99.90;;;;;;4750025;30;20051;-74
2023/09/08 10:17:10;;;;;;;15.45;10.98;;;25.90;99.90;;;;;;4750593;30;20047;-75
2023/09/08 10:19:41;;;;;;;13.45;11.05;;;26.00;99.90;;;;;;4766385;30;20130;-75
2023/09/08 10:22:12;;;;;;;17.05;10.40;;;26.10;99.90;;;;;;4751365;30;20048;-75
2023/09/08 10:24:39;;;;;;;15.45;10.90;;;26.10;99.90;;;;;;4766094;30;20429;-75
2023/09/08 10:27:10;;;;;;;12.00;10.15;;;26.20;99.90;;;;;;4750343;30;20642;-75
2023/09/08 10:29:36;;;;;;;12.82;10.05;;;26.20;99.90;;;;;;4766345;30;20047;-74
2023/09/08 10:32:03;;;;;;;13.20;10.52;;;26.30;99.90;;;;;;4750874;30;20104;-71
2023/09/08 10:34:32;;;;;;;11.93;10.27;;;26.50;99.90;;;;;;4750892;30;20142;-74
2023/09/08 10:36:57;;;;;;;12.68;10.27;;;26.60;99.90;;;;;;4750689;30;20492;-75
2023/09/08 10:39:35;;;;;;;14.38;11.43;;;26.70;99.90;;;;;;4749785;30;20055;-72
2023/09/08 10:42:24;;;;;;;15.45;10.95;;;26.70;99.90;;;;;;4765822;30;20804;-72
2023/09/08 10:44:50;;;;;;;13.50;10.02;;;26.70;99.90;;;;;;4751113;30;20065;-73
2023/09/08 10:47:47;;;;;;;13.95;9.95;;;26.80;99.90;;;;;;4766009;30;20047;-72
2023/09/08 10:50:17;;;;;;;15.68;9.38;;;27.00;99.90;;;;;;4744240;30;20064;-74
2023/09/08 10:52:43;;;;;;;15.07;9.98;;;27.10;99.90;;;;;;4766055;30;20059;-75
2023/09/08 10:55:12;;;;;;;14.75;9.85;;;27.20;99.90;;;;;;4758462;30;20091;-74
2023/09/08 10:57:38;;;;;;;11.20;9.73;;;27.20;99.90;;;;;;4728778;30;20052;-75
2023/09/08 11:00:10;;;;;;;13.93;9.77;;;27.30;99.90;;;;;;4743215;30;20062;-75
2023/09/08 11:02:52;;;;;;;10.63;9.45;;;27.40;99.90;;;;;;4740805;30;20044;-74
2023/09/08 11:05:19;;;;;;;22.05;9.70;;;27.50;99.90;;;;;;4727534;30;20489;-71
2023/09/08 11:07:46;;;;;;;14.38;9.35;;;27.60;99.90;;;;;;4736591;30;20052;-74
2023/09/08 11:10:16;;;;;;;11.82;9.48;;;27.70;99.90;;;;;;4736210;30;20072;-72
2023/09/08 11:12:41;;;;;;;12.00;9.45;;;27.80;99.90;;;;;;4751074;30;20059;-71
2023/09/08 11:15:08;;;;;;;17.10;10.23;;;27.90;99.90;;;;;;4719032;30;20052;-72
2023/09/08 11:17:41;;;;;;;10.00;8.90;;;27.90;99.90;;;;;;4739415;30;20044;-72
2023/09/08 11:20:10;;;;;;;11.93;9.25;;;27.90;99.90;;;;;;4736393;30;20397;-73
2023/09/08 11:22:39;;;;;;;15.38;9.70;;;27.90;99.90;;;;;;4752187;30;20497;-74
2023/09/08 11:25:12;;;;;;;10.63;9.50;;;28.00;99.90;;;;;;4735971;30;20403;-74
2023/09/08 11:27:41;;;;;;;10.40;9.23;;;28.00;99.90;;;;;;4736478;30;20058;-75
2023/09/08 11:30:12;;;;;;;27.40;11.32;;;28.20;99.90;;;;;;4750295;30;20514;-74
2023/09/08 11:32:37;;;;;;;17.50;9.70;;;28.20;99.90;;;;;;4726461;30;20071;-75
2023/09/08 11:35:09;;;;;;;10.48;9.05;;;28.20;99.90;;;;;;4739776;30;20060;-74
2023/09/08 11:37:39;;;;;;;14.57;12.63;;;28.30;99.90;;;;;;4755428;30;20405;-75
2023/09/08 11:40:15;;;;;;;15.25;9.55;;;28.40;99.90;;;;;;4739293;30;20064;-73
2023/09/08 11:42:45;;;;;;;16.65;10.52;;;28.40;99.90;;;;;;4772253;30;20048;-73
2023/09/08 11:45:17;;;;;;;13.85;9.45;;;28.50;99.90;;;;;;4756006;30;20135;-75
2023/09/08 11:47:43;;;;;;;11.73;9.35;;;28.40;99.90;;;;;;4773333;30;20055;-74
2023/09/08 11:50:18;;;;;;;15.20;9.20;;;28.50;99.90;;;;;;4757421;30;20050;-74
2023/09/08 11:52:48;;;;;;;12.27;9.52;;;28.30;99.90;;;;;;4757094;30;20059;-74
2023/09/08 11:55:16;;;;;;;11.43;10.13;;;28.30;99.90;;;;;;4757377;30;20489;-74
2023/09/08 11:57:44;;;;;;;11.82;9.38;;;28.20;99.90;;;;;;4773300;30;20064;-74
2023/09/08 12:00:15;;;;;;;12.10;9.23;;;28.20;99.90;;;;;;4773111;30;20051;-73
2023/09/08 12:02:41;;;;;;;10.90;9.57;;;28.30;99.90;;;;;;4773292;30;20035;-73
2023/09/08 12:05:33;;;;;;;13.80;9.40;;;28.40;99.90;;;;;;4773126;30;20070;-74
2023/09/08 12:07:59;;;;;;;12.38;9.88;;;28.40;99.90;;;;;;4768876;30;20060;-74
2023/09/08 12:10:25;;;;;;;15.68;9.25;;;28.50;99.90;;;;;;4772872;30;20100;-74
2023/09/08 12:12:54;;;;;;;13.00;9.20;;;28.50;99.90;;;;;;4756761;30;20513;-74
2023/09/08 12:15:40;;;;;;;11.05;9.00;;;28.60;99.90;;;;;;4756633;30;20105;-74
2023/09/08 12:18:08;;;;;;;14.70;9.55;;;28.50;99.90;;;;;;4757035;30;20062;-74
2023/09/08 12:20:36;;;;;;;11.52;9.30;;;28.50;99.90;;;;;;4756923;30;20452;-74
2023/09/08 12:23:04;;;;;;;12.70;9.32;;;28.60;99.90;;;;;;4756993;30;20052;-74
2023/09/08 12:25:34;;;;;;;13.32;9.30;;;28.70;99.90;;;;;;4772904;30;20048;-74
2023/09/08 12:28:00;;;;;;;11.48;8.88;;;28.70;99.90;;;;;;4757178;30;20083;-73